createdAt,value
2022-08-30T00:02:10.775Z,3.00
2022-08-30T00:04:37.645Z,3.05
2022-08-30T00:07:04.627Z,2.50
2022-08-30T00:09:32.803Z,3.03
2022-08-30T00:11:59.829Z,3.30
2022-08-30T00:14:27.662Z,3.13
2022-08-30T00:16:54.589Z,3.22
2022-08-30T00:19:21.509Z,2.63
2022-08-30T00:21:48.529Z,3.65
2022-08-30T00:24:15.380Z,2.75
2022-08-30T00:26:42.270Z,3.28
2022-08-30T00:29:09.294Z,3.67
2022-08-30T00:31:36.191Z,3.35
2022-08-30T00:34:03.032Z,2.93
2022-08-30T00:36:29.936Z,3.20
2022-08-30T00:38:56.786Z,2.85
2022-08-30T00:41:23.763Z,3.45
2022-08-30T00:43:50.591Z,3.20
2022-08-30T00:46:17.489Z,3.30
2022-08-30T00:48:49.366Z,2.83
2022-08-30T00:51:17.157Z,3.05
2022-08-30T00:53:48.250Z,3.50
2022-08-30T00:56:16.138Z,3.75
2022-08-30T00:58:46.849Z,3.20
2022-08-30T01:01:14.451Z,3.10
2022-08-30T01:03:43.498Z,3.28
2022-08-30T01:06:10.739Z,3.45
2022-08-30T01:08:39.011Z,3.72
2022-08-30T01:11:06.410Z,3.13
2022-08-30T01:13:34.637Z,3.10
2022-08-30T01:16:02.628Z,3.53
2022-08-30T01:18:31.399Z,3.10
2022-08-30T01:21:17.008Z,3.67
2022-08-30T01:23:45.777Z,3.47
2022-08-30T01:26:15.887Z,3.92
2022-08-30T01:28:48.597Z,3.60
2022-08-30T01:31:15.800Z,3.80
2022-08-30T01:33:42.824Z,3.90
2022-08-30T01:36:12.980Z,3.80
2022-08-30T01:38:56.830Z,3.45
2022-08-30T01:41:36.198Z,3.63
2022-08-30T01:44:10.232Z,3.88
2022-08-30T01:46:42.046Z,3.90
2022-08-30T01:49:12.926Z,3.90
2022-08-30T01:51:40.342Z,4.00
2022-08-30T01:54:07.711Z,4.05
2022-08-30T01:56:35.310Z,4.32
2022-08-30T01:59:03.279Z,4.15
2022-08-30T02:01:33.313Z,4.57
2022-08-30T02:04:00.577Z,4.10
2022-08-30T02:06:27.968Z,4.35
2022-08-30T02:08:55.316Z,4.40
2022-08-30T02:11:22.330Z,4.75
2022-08-30T02:13:49.835Z,3.83
2022-08-30T02:16:20.589Z,4.90
2022-08-30T02:18:47.411Z,4.20
2022-08-30T02:21:14.830Z,4.70
2022-08-30T02:23:42.526Z,5.00
2022-08-30T02:26:10.755Z,4.53
2022-08-30T02:28:42.890Z,4.78
2022-08-30T02:31:18.029Z,4.60
2022-08-30T02:33:47.722Z,4.40
2022-08-30T02:36:15.410Z,5.32
2022-08-30T02:38:42.262Z,5.03
2022-08-30T02:41:09.204Z,4.45
2022-08-30T02:43:36.239Z,5.22
2022-08-30T02:46:03.398Z,4.35
2022-08-30T02:48:30.402Z,4.60
2022-08-30T02:50:57.276Z,4.60
2022-08-30T02:53:24.191Z,5.20
2022-08-30T02:55:54.003Z,5.40
2022-08-30T02:58:20.904Z,5.18
2022-08-30T03:00:47.764Z,5.60
2022-08-30T03:03:14.785Z,5.30
2022-08-30T03:05:41.692Z,4.85
2022-08-30T03:08:09.705Z,4.90
2022-08-30T03:10:38.337Z,5.28
2022-08-30T03:13:07.616Z,5.45
2022-08-30T03:15:37.408Z,5.10
2022-08-30T03:18:04.256Z,4.90
2022-08-30T03:20:31.186Z,5.03
2022-08-30T03:22:58.130Z,5.32
2022-08-30T03:25:25.062Z,5.38
2022-08-30T03:27:52.086Z,5.60
2022-08-30T03:30:20.580Z,6.22
2022-08-30T03:32:48.146Z,6.00
2022-08-30T03:35:16.771Z,5.28
2022-08-30T03:37:43.811Z,5.97
2022-08-30T03:40:13.338Z,5.77
2022-08-30T03:42:41.399Z,6.25
2022-08-30T03:45:11.303Z,5.82
2022-08-30T03:47:38.117Z,6.20
2022-08-30T03:50:08.438Z,6.47
2022-08-30T03:52:35.496Z,6.57
2022-08-30T03:55:02.344Z,5.93
2022-08-30T03:57:29.257Z,6.35
2022-08-30T03:59:56.774Z,6.35
2022-08-30T04:02:23.789Z,6.18
2022-08-30T04:04:51.062Z,6.63
2022-08-30T04:07:19.772Z,6.78
2022-08-30T04:09:47.411Z,5.85
2022-08-30T04:12:14.320Z,6.68
2022-08-30T04:14:45.306Z,6.60
2022-08-30T04:17:12.141Z,6.67
2022-08-30T04:19:39.165Z,6.50
2022-08-30T04:22:06.078Z,6.65
2022-08-30T04:24:34.487Z,6.85
2022-08-30T04:27:01.627Z,7.20
2022-08-30T04:29:28.679Z,6.67
2022-08-30T04:31:55.529Z,7.70
2022-08-30T04:34:23.164Z,6.97
2022-08-30T04:36:50.204Z,7.30
2022-08-30T04:39:20.634Z,7.00
2022-08-30T04:41:47.791Z,7.33
2022-08-30T04:44:19.213Z,7.07
2022-08-30T04:46:46.804Z,7.25
2022-08-30T04:49:14.118Z,7.40
2022-08-30T04:51:41.157Z,7.40
2022-08-30T04:54:07.963Z,6.80
2022-08-30T04:56:34.800Z,6.53
2022-08-30T04:59:01.918Z,6.88
2022-08-30T05:01:31.837Z,8.10
2022-08-30T05:04:04.269Z,7.65
2022-08-30T05:06:31.346Z,7.70
2022-08-30T05:09:00.529Z,7.07
2022-08-30T05:11:28.095Z,7.43
2022-08-30T05:13:55.338Z,7.03
2022-08-30T05:16:22.333Z,7.70
2022-08-30T05:18:51.760Z,6.93
2022-08-30T05:21:25.430Z,7.13
2022-08-30T05:23:55.988Z,6.95
2022-08-30T05:26:31.831Z,6.55
2022-08-30T05:28:59.286Z,6.20
2022-08-30T05:31:32.472Z,6.97
2022-08-30T05:33:59.533Z,6.47
2022-08-30T05:36:28.783Z,6.32
2022-08-30T05:38:56.172Z,6.32
2022-08-30T05:41:25.948Z,6.15
2022-08-30T05:43:57.962Z,6.60
2022-08-30T05:46:26.282Z,6.70
2022-08-30T05:48:53.301Z,5.13
2022-08-30T05:51:23.309Z,6.35
2022-08-30T05:53:51.834Z,6.32
2022-08-30T05:56:24.921Z,6.00
2022-08-30T05:58:53.583Z,6.35
2022-08-30T06:01:32.149Z,6.85
2022-08-30T06:04:04.120Z,6.32
2022-08-30T06:06:35.563Z,5.70
2022-08-30T06:09:05.143Z,6.60
2022-08-30T06:11:33.710Z,6.28
2022-08-30T06:14:01.285Z,6.07
2022-08-30T06:16:29.338Z,6.20
2022-08-30T06:18:58.084Z,5.68
2022-08-30T06:21:30.577Z,6.03
2022-08-30T06:23:58.479Z,6.10
2022-08-30T06:26:26.997Z,6.28
2022-08-30T06:28:54.433Z,5.90
2022-08-30T06:31:23.296Z,6.00
2022-08-30T06:33:50.863Z,5.97
2022-08-30T06:36:21.060Z,5.68
2022-08-30T06:38:51.726Z,5.70
2022-08-30T06:41:22.384Z,5.70
2022-08-30T06:43:49.747Z,5.97
2022-08-30T06:46:20.249Z,5.47
2022-08-30T06:48:48.438Z,4.85
2022-08-30T06:51:19.832Z,5.38
2022-08-30T06:53:47.178Z,4.40
2022-08-30T06:56:16.931Z,4.65
2022-08-30T06:58:44.463Z,4.90
2022-08-30T07:01:20.880Z,4.40
2022-08-30T07:03:48.027Z,4.45
2022-08-30T07:06:14.904Z,4.40
2022-08-30T07:08:41.707Z,4.28
2022-08-30T07:11:09.045Z,4.23
2022-08-30T07:13:36.952Z,3.92
2022-08-30T07:16:14.532Z,3.92
2022-08-30T07:18:50.691Z,3.53
2022-08-30T07:21:24.543Z,3.20
2022-08-30T07:23:53.551Z,3.10
2022-08-30T07:26:31.945Z,2.90
2022-08-30T07:28:59.303Z,2.95
2022-08-30T07:31:26.347Z,2.85
2022-08-30T07:33:53.301Z,3.20
2022-08-30T07:36:22.034Z,3.10
2022-08-30T07:38:52.734Z,3.00
2022-08-30T07:41:23.703Z,3.28
2022-08-30T07:43:50.777Z,2.92
2022-08-30T07:46:18.483Z,2.92
2022-08-30T07:48:45.341Z,2.43
2022-08-30T07:51:18.043Z,2.50
2022-08-30T07:53:44.886Z,2.53
2022-08-30T07:56:12.036Z,2.20
2022-08-30T07:58:39.732Z,2.40
2022-08-30T08:01:08.772Z,2.40
2022-08-30T08:03:36.401Z,2.10
2022-08-30T08:06:05.242Z,2.22
2022-08-30T08:08:32.812Z,2.17
2022-08-30T08:11:07.076Z,2.13
2022-08-30T08:13:52.669Z,2.10
2022-08-30T08:16:26.802Z,2.10
2022-08-30T08:18:54.922Z,2.25
2022-08-30T08:21:23.225Z,2.38
2022-08-30T08:23:50.391Z,2.30
2022-08-30T08:26:17.782Z,1.75
2022-08-30T08:28:46.424Z,1.90
2022-08-30T08:31:20.434Z,1.63
2022-08-30T08:33:47.447Z,1.85
2022-08-30T08:36:15.052Z,1.80
2022-08-30T08:38:42.371Z,1.70
2022-08-30T08:41:33.758Z,1.60
2022-08-30T08:44:01.202Z,1.58
2022-08-30T08:46:48.313Z,1.40
2022-08-30T08:49:15.442Z,1.48
2022-08-30T08:52:01.073Z,1.83
2022-08-30T08:54:35.554Z,1.50
2022-08-30T08:57:02.497Z,1.80
2022-08-30T08:59:29.494Z,1.80
2022-08-30T09:02:03.045Z,1.90
2022-08-30T09:04:37.705Z,1.67
2022-08-30T09:07:26.117Z,1.73
2022-08-30T09:09:53.110Z,1.75
2022-08-30T09:12:20.975Z,1.50
2022-08-30T09:14:55.426Z,1.42
2022-08-30T09:17:23.434Z,2.20
2022-08-30T09:19:53.627Z,1.25
2022-08-30T09:22:23.174Z,1.80
2022-08-30T09:24:59.354Z,1.40
2022-08-30T09:27:31.053Z,1.27
2022-08-30T09:30:17.492Z,1.70
2022-08-30T09:32:55.217Z,1.60
2022-08-30T09:35:26.156Z,1.60
2022-08-30T09:38:04.227Z,1.80
2022-08-30T09:40:38.948Z,1.45
2022-08-30T09:43:19.899Z,1.67
2022-08-30T09:46:08.741Z,1.55
2022-08-30T09:48:44.117Z,1.92
2022-08-30T09:51:11.528Z,1.70
2022-08-30T10:05:59.085Z,1.42
2022-08-30T10:08:32.358Z,1.60
2022-08-30T10:11:01.363Z,1.80
2022-08-30T10:13:58.790Z,1.70
2022-08-30T10:16:39.400Z,1.77
2022-08-30T10:19:15.414Z,1.67
2022-08-30T10:21:58.597Z,1.52
2022-08-30T10:24:35.911Z,1.48
2022-08-30T10:27:11.308Z,1.90
2022-08-30T10:29:51.395Z,1.50
2022-08-30T10:32:37.826Z,1.65
2022-08-30T10:35:25.465Z,1.70
2022-08-30T10:38:18.614Z,1.45
2022-08-30T10:41:11.292Z,1.50
2022-08-30T10:44:03.084Z,1.50
2022-08-30T10:47:09.015Z,1.63
2022-08-30T10:49:46.901Z,1.90
2022-08-30T10:52:31.338Z,1.70
2022-08-30T10:55:04.632Z,1.70
2022-08-30T10:57:32.858Z,1.60
2022-08-30T11:00:11.090Z,2.00
2022-08-30T11:03:08.513Z,1.70
2022-08-30T11:05:43.119Z,1.60
2022-08-30T11:08:22.009Z,1.63
2022-08-30T11:11:16.018Z,1.83
2022-08-30T11:13:45.048Z,1.50
2022-08-30T11:16:18.842Z,1.60
2022-08-30T11:18:56.407Z,1.55
2022-08-30T11:21:33.765Z,1.63
2022-08-30T11:24:14.521Z,1.55
2022-08-30T11:26:50.166Z,1.40
2022-08-30T11:29:32.751Z,1.52
2022-08-30T11:32:20.213Z,1.60
2022-08-30T11:34:46.998Z,1.77
2022-08-30T11:37:13.731Z,2.38
2022-08-30T11:39:49.324Z,1.67
2022-08-30T11:42:52.869Z,1.67
2022-08-30T11:45:24.746Z,1.63
2022-08-30T11:47:59.528Z,1.25
2022-08-30T11:50:40.654Z,1.60
2022-08-30T11:53:21.486Z,1.40
2022-08-30T11:56:26.491Z,1.55
2022-08-30T11:59:07.258Z,1.65
2022-08-30T12:01:51.093Z,1.80
2022-08-30T12:04:22.815Z,1.63
2022-08-30T12:06:59.809Z,1.50
2022-08-30T12:09:26.538Z,1.40
2022-08-30T12:12:10.990Z,1.40
2022-08-30T12:14:54.781Z,1.48
2022-08-30T12:18:15.182Z,1.58
2022-08-30T12:20:48.326Z,1.53
2022-08-30T12:23:24.675Z,1.90
2022-08-30T12:26:30.294Z,1.40
2022-08-30T12:29:12.147Z,1.65
2022-08-30T12:31:48.572Z,1.70
2022-08-30T12:34:32.294Z,1.70
2022-08-30T12:37:27.580Z,1.80
2022-08-30T12:40:12.235Z,1.45
2022-08-30T12:43:01.667Z,1.52
2022-08-30T12:45:38.719Z,1.70
2022-08-30T12:48:15.708Z,1.50
2022-08-30T12:50:52.226Z,1.40
2022-08-30T12:53:38.653Z,1.65
2022-08-30T12:56:09.648Z,1.50
2022-08-30T12:58:49.520Z,1.30
2022-08-30T13:01:25.233Z,1.80
2022-08-30T13:03:57.987Z,1.40
2022-08-30T13:06:55.984Z,1.63
2022-08-30T13:09:32.530Z,1.63
2022-08-30T13:12:01.646Z,1.50
2022-08-30T13:14:42.357Z,1.90
2022-08-30T13:17:19.441Z,1.67
2022-08-30T13:20:11.550Z,1.48
2022-08-30T13:22:41.401Z,1.70
2022-08-30T13:25:11.919Z,1.63
2022-08-30T13:27:40.279Z,1.67
2022-08-30T13:30:14.624Z,1.77
2022-08-30T13:32:42.580Z,1.73
2022-08-30T13:35:10.125Z,1.58
2022-08-30T13:37:49.941Z,1.90
2022-08-30T13:40:22.277Z,1.73
2022-08-30T13:42:50.252Z,1.70
2022-08-30T13:48:06.960Z,2.08
2022-08-30T13:50:33.795Z,1.90
2022-08-30T13:53:00.547Z,1.90
2022-08-30T13:55:28.015Z,1.70
2022-08-30T13:57:56.504Z,2.00
2022-08-30T14:00:25.302Z,1.95
2022-08-30T14:02:56.154Z,1.40
2022-08-30T14:11:18.386Z,1.77
2022-08-30T14:16:34.446Z,1.60
2022-08-30T14:19:01.879Z,1.67
2022-08-30T14:21:28.923Z,1.45
2022-08-30T14:23:57.641Z,1.70
2022-08-30T14:26:33.169Z,2.10
2022-08-30T14:29:02.011Z,1.65
2022-08-30T14:31:30.199Z,1.93
2022-08-30T14:34:00.302Z,1.70
2022-08-30T14:36:27.065Z,1.80
2022-08-30T14:38:53.783Z,1.83
2022-08-30T14:41:20.497Z,1.90
2022-08-30T14:43:47.250Z,1.60
2022-08-30T14:46:14.223Z,1.63
2022-08-30T14:48:41.814Z,2.03
2022-08-30T14:51:18.661Z,1.83
2022-08-30T14:53:46.292Z,1.70
2022-08-30T14:56:16.264Z,2.00
2022-08-30T14:58:43.578Z,2.30
2022-08-30T15:01:12.466Z,1.70
2022-08-30T15:03:41.301Z,2.00
2022-08-30T15:06:09.060Z,2.38
2022-08-30T15:08:37.139Z,2.60
2022-08-30T15:11:09.491Z,2.30
2022-08-30T15:13:36.694Z,1.90
2022-08-30T15:16:14.408Z,1.80
2022-08-30T15:18:41.883Z,1.95
2022-08-30T15:21:09.690Z,2.50
2022-08-30T15:23:37.227Z,2.25
2022-08-30T15:26:05.281Z,2.90
2022-08-30T15:28:33.384Z,1.90
2022-08-30T15:31:02.161Z,2.30
2022-08-30T15:33:31.987Z,1.83
2022-08-30T15:36:02.621Z,2.40
2022-08-30T15:38:31.219Z,2.38
2022-08-30T15:41:02.216Z,1.90
2022-08-30T15:43:29.486Z,1.77
2022-08-30T15:46:29.405Z,2.00
2022-08-30T15:49:00.587Z,1.80
2022-08-30T15:51:28.570Z,1.92
2022-08-30T15:53:58.345Z,2.00
2022-08-30T15:56:25.633Z,1.70
2022-08-30T15:58:52.928Z,1.90
2022-08-30T16:01:30.197Z,1.60
2022-08-30T16:03:58.783Z,1.55
2022-08-30T16:06:29.655Z,1.77
2022-08-30T16:08:56.516Z,1.75
2022-08-30T16:11:25.084Z,1.70
2022-08-30T16:13:53.534Z,1.70
2022-08-30T16:16:21.517Z,1.70
2022-08-30T16:18:53.946Z,1.83
2022-08-30T16:21:27.534Z,1.60
2022-08-30T16:24:00.160Z,1.73
2022-08-30T16:26:28.643Z,1.63
2022-08-30T16:28:56.183Z,1.60
2022-08-30T16:31:25.976Z,1.42
2022-08-30T16:33:53.968Z,1.60
2022-08-30T16:36:23.118Z,1.70
2022-08-30T16:38:53.463Z,1.90
2022-08-30T16:41:22.372Z,1.50
2022-08-30T16:43:53.238Z,1.52
2022-08-30T16:46:27.016Z,1.40
2022-08-30T16:49:00.122Z,1.50
2022-08-30T16:51:29.375Z,1.70
2022-08-30T16:53:58.545Z,1.45
2022-08-30T16:56:27.166Z,1.65
2022-08-30T16:59:01.383Z,1.88
2022-08-30T17:01:34.966Z,1.50
2022-08-30T17:04:03.575Z,1.70
2022-08-30T17:06:30.524Z,1.60
2022-08-30T17:08:59.141Z,1.52
2022-08-30T17:11:26.390Z,1.60
2022-08-30T17:13:53.816Z,1.63
2022-08-30T17:16:22.688Z,1.70
2022-08-30T17:18:55.510Z,1.77
2022-08-30T17:21:22.335Z,1.77
2022-08-30T17:23:50.467Z,1.40
2022-08-30T17:26:19.008Z,1.60
2022-08-30T17:28:45.980Z,1.60
2022-08-30T17:31:12.922Z,1.70
2022-08-30T17:33:43.053Z,1.52
2022-08-30T17:36:12.620Z,1.20
2022-08-30T17:38:44.831Z,1.70
2022-08-30T17:41:12.813Z,1.70
2022-08-30T17:43:39.698Z,1.88
2022-08-30T17:46:20.752Z,1.60
2022-08-30T17:48:47.807Z,1.40
2022-08-30T17:51:24.831Z,1.85
2022-08-30T17:53:52.088Z,1.38
2022-08-30T17:56:19.149Z,1.60
2022-08-30T17:58:47.434Z,1.60
2022-08-30T18:01:15.274Z,1.27
2022-08-30T18:03:45.560Z,1.30
2022-08-30T18:06:13.397Z,1.45
2022-08-30T18:08:40.880Z,1.95
2022-08-30T18:11:08.574Z,1.52
2022-08-30T18:13:35.879Z,1.55
2022-08-30T18:16:04.072Z,1.52
2022-08-30T18:18:31.963Z,1.42
2022-08-30T18:21:00.008Z,1.40
2022-08-30T18:23:27.937Z,1.42
2022-08-30T18:26:02.917Z,1.55
2022-08-30T18:28:29.899Z,1.60
2022-08-30T18:30:57.975Z,1.55
2022-08-30T18:33:25.903Z,1.33
2022-08-30T18:35:53.598Z,1.60
2022-08-30T18:38:23.772Z,1.42
2022-08-30T18:40:53.107Z,1.50
2022-08-30T18:43:24.674Z,1.60
2022-08-30T18:46:01.720Z,1.60
2022-08-30T18:48:30.287Z,1.30
2022-08-30T18:50:57.389Z,1.70
2022-08-30T18:53:29.068Z,1.40
2022-08-30T18:55:57.198Z,1.60
2022-08-30T18:58:24.158Z,1.73
2022-08-30T19:00:51.651Z,1.90
2022-08-30T19:03:19.109Z,1.70
2022-08-30T19:05:46.410Z,1.50
2022-08-30T19:08:13.858Z,1.50
2022-08-30T19:10:40.845Z,1.83
2022-08-30T19:13:07.735Z,1.48
2022-08-30T19:15:35.218Z,1.90
2022-08-30T19:18:16.577Z,1.60
2022-08-30T19:20:44.992Z,1.70
2022-08-30T19:23:12.421Z,1.70
2022-08-30T19:25:43.550Z,1.73
2022-08-30T19:28:11.784Z,1.77
2022-08-30T19:30:39.496Z,1.75
2022-08-30T19:33:06.637Z,2.20
2022-08-30T19:35:38.442Z,1.80
2022-08-30T19:38:05.552Z,2.03
2022-08-30T19:40:32.369Z,2.00
2022-08-30T19:43:00.106Z,1.98
2022-08-30T19:45:27.377Z,2.00
2022-08-30T19:47:54.487Z,2.08
2022-08-30T19:50:21.923Z,2.10
2022-08-30T19:52:54.165Z,2.22
2022-08-30T19:55:28.180Z,2.00
2022-08-30T19:57:56.061Z,1.90
2022-08-30T20:00:23.516Z,1.77
2022-08-30T20:02:51.471Z,2.17
2022-08-30T20:05:21.322Z,1.80
2022-08-30T20:10:36.515Z,1.63
2022-08-30T20:13:04.900Z,1.80
2022-08-30T20:15:31.900Z,1.60
2022-08-30T20:18:05.538Z,2.00
2022-08-30T20:20:36.526Z,1.80
2022-08-30T20:23:04.633Z,1.92
2022-08-30T20:25:31.831Z,1.80
2022-08-30T20:27:59.371Z,1.73
2022-08-30T20:30:26.364Z,1.80
2022-08-30T20:32:55.127Z,1.73
2022-08-30T20:35:23.623Z,1.98
2022-08-30T20:37:51.005Z,1.52
2022-08-30T20:40:20.019Z,1.80
2022-08-30T20:42:47.554Z,2.00
2022-08-30T20:45:16.947Z,1.70
2022-08-30T20:47:44.430Z,1.77
2022-08-30T20:50:14.204Z,1.88
2022-08-30T20:52:41.807Z,2.00
2022-08-30T20:55:10.041Z,1.90
2022-08-30T20:57:37.088Z,1.90
2022-08-30T21:00:10.483Z,2.08
2022-08-30T21:02:46.220Z,2.03
2022-08-30T21:05:15.644Z,1.90
2022-08-30T21:07:44.564Z,1.95
2022-08-30T21:10:11.978Z,2.13
2022-08-30T21:12:39.379Z,2.15
2022-08-30T21:15:33.994Z,2.30
2022-08-30T21:17:55.301Z,2.05
2022-08-30T21:20:22.837Z,2.25
2022-08-30T21:22:49.868Z,2.30
2022-08-30T21:25:17.269Z,2.10
2022-08-30T21:27:44.419Z,2.03
2022-08-30T21:30:13.658Z,1.92
2022-08-30T21:32:41.401Z,2.20
2022-08-30T21:35:27.964Z,1.98
2022-08-30T21:37:55.518Z,2.28
2022-08-30T21:40:22.756Z,2.08
2022-08-30T21:42:49.819Z,2.75
2022-08-30T21:45:16.827Z,2.22
2022-08-30T21:47:43.984Z,2.20
2022-08-30T21:50:11.966Z,1.98
2022-08-30T21:52:39.030Z,2.05
2022-08-30T21:55:06.504Z,2.20
2022-08-30T21:57:33.316Z,2.08
2022-08-30T22:00:00.095Z,2.00
2022-08-30T22:02:28.384Z,2.30
2022-08-30T22:04:56.052Z,2.03
2022-08-30T22:07:22.877Z,2.50
2022-08-30T22:09:49.701Z,2.20
2022-08-30T22:12:17.001Z,2.33
2022-08-30T22:14:43.915Z,2.17
2022-08-30T22:17:11.469Z,1.98
2022-08-30T22:19:38.317Z,2.40
2022-08-30T22:22:06.064Z,2.53
2022-08-30T22:24:33.089Z,1.92
2022-08-30T22:27:02.144Z,1.85
2022-08-30T22:29:30.083Z,1.98
2022-08-30T22:31:57.219Z,1.63
2022-08-30T22:34:24.630Z,1.90
2022-08-30T22:36:51.793Z,2.20
2022-08-30T22:39:18.648Z,1.90
2022-08-30T22:41:45.643Z,2.10
2022-08-30T22:44:12.881Z,1.85
2022-08-30T22:46:39.744Z,2.00
2022-08-30T22:49:08.977Z,1.75
2022-08-30T22:51:36.965Z,2.05
2022-08-30T22:54:05.662Z,1.70
2022-08-30T22:56:35.486Z,1.90
2022-08-30T22:59:02.721Z,1.75
2022-08-30T23:01:32.268Z,1.88
2022-08-30T23:04:01.137Z,1.77
2022-08-30T23:06:29.222Z,1.92
2022-08-30T23:08:56.445Z,1.60
2022-08-30T23:11:23.657Z,2.13
2022-08-30T23:13:51.075Z,2.10
2022-08-30T23:16:18.938Z,1.80
2022-08-30T23:18:47.096Z,1.67
2022-08-30T23:21:17.664Z,2.05
2022-08-30T23:24:03.176Z,2.10
2022-08-30T23:26:48.955Z,1.60
2022-08-30T23:29:35.228Z,1.88
2022-08-30T23:32:21.127Z,1.88
2022-08-30T23:35:06.377Z,2.08
2022-08-30T23:37:53.050Z,2.00
2022-08-30T23:40:41.040Z,2.15
2022-08-30T23:43:27.763Z,1.70
2022-08-30T23:46:18.897Z,1.90
2022-08-30T23:49:06.151Z,2.10
2022-08-30T23:51:52.813Z,1.70
2022-08-30T23:54:38.193Z,1.70
2022-08-30T23:57:24.175Z,1.88
